sensor_id;sensor_type;location;lat;lon;timestamp;temperature;humidity
480;DHT22;226;48.606;9.096;2023-11-25T00:01:56;2.30;53.90
480;DHT22;226;48.606;9.096;2023-11-25T00:04:24;2.30;57.60
480;DHT22;226;48.606;9.096;2023-11-25T00:06:55;2.20;59.30
480;DHT22;226;48.606;9.096;2023-11-25T00:09:25;2.10;62.50
480;DHT22;226;48.606;9.096;2023-11-25T00:11:53;2.00;63.10
480;DHT22;226;48.606;9.096;2023-11-25T00:14:21;2.00;66.00
480;DHT22;226;48.606;9.096;2023-11-25T00:16:51;3.30;69.00
480;DHT22;226;48.606;9.096;2023-11-25T00:19:20;1.90;67.50
480;DHT22;226;48.606;9.096;2023-11-25T00:21:48;2.40;69.70
480;DHT22;226;48.606;9.096;2023-11-25T00:24:18;1.90;69.40
480;DHT22;226;48.606;9.096;2023-11-25T00:26:49;1.90;69.70
480;DHT22;226;48.606;9.096;2023-11-25T00:29:17;2.00;69.70
480;DHT22;226;48.606;9.096;2023-11-25T00:31:47;2.00;67.10
480;DHT22;226;48.606;9.096;2023-11-25T00:34:16;2.00;66.70
480;DHT22;226;48.606;9.096;2023-11-25T00:36:44;2.20;63.80
480;DHT22;226;48.606;9.096;2023-11-25T00:39:12;2.10;64.00
480;DHT22;226;48.606;9.096;2023-11-25T00:41:43;2.10;63.20
480;DHT22;226;48.606;9.096;2023-11-25T00:44:11;2.30;62.30
480;DHT22;226;48.606;9.096;2023-11-25T00:46:40;2.20;62.50
480;DHT22;226;48.606;9.096;2023-11-25T00:49:09;2.30;62.30
480;DHT22;226;48.606;9.096;2023-11-25T00:51:38;2.50;60.20
480;DHT22;226;48.606;9.096;2023-11-25T00:54:06;2.30;59.90
480;DHT22;226;48.606;9.096;2023-11-25T00:56:35;2.30;58.10
480;DHT22;226;48.606;9.096;2023-11-25T00:59:05;2.30;57.80
480;DHT22;226;48.606;9.096;2023-11-25T01:01:34;2.30;56.80
480;DHT22;226;48.606;9.096;2023-11-25T01:04:03;2.40;57.20
480;DHT22;226;48.606;9.096;2023-11-25T01:06:32;2.40;56.30
480;DHT22;226;48.606;9.096;2023-11-25T01:09:02;2.40;55.70
480;DHT22;226;48.606;9.096;2023-11-25T01:11:30;2.30;52.80
480;DHT22;226;48.606;9.096;2023-11-25T01:13:58;2.40;53.00
480;DHT22;226;48.606;9.096;2023-11-25T01:16:30;2.50;50.90
480;DHT22;226;48.606;9.096;2023-11-25T01:18:58;2.50;47.10
480;DHT22;226;48.606;9.096;2023-11-25T01:21:26;2.50;46.90
480;DHT22;226;48.606;9.096;2023-11-25T01:23:54;2.50;46.40
480;DHT22;226;48.606;9.096;2023-11-25T01:26:23;2.70;49.30
480;DHT22;226;48.606;9.096;2023-11-25T01:28:51;2.50;42.40
480;DHT22;226;48.606;9.096;2023-11-25T01:31:19;2.50;40.20
480;DHT22;226;48.606;9.096;2023-11-25T01:33:49;2.50;39.00
480;DHT22;226;48.606;9.096;2023-11-25T01:36:17;2.50;40.60
480;DHT22;226;48.606;9.096;2023-11-25T01:38:45;2.60;43.60
480;DHT22;226;48.606;9.096;2023-11-25T01:41:13;2.50;43.00
480;DHT22;226;48.606;9.096;2023-11-25T01:43:41;2.50;40.20
480;DHT22;226;48.606;9.096;2023-11-25T01:46:10;2.50;41.60
480;DHT22;226;48.606;9.096;2023-11-25T01:48:39;2.50;42.20
480;DHT22;226;48.606;9.096;2023-11-25T01:51:08;2.30;42.00
480;DHT22;226;48.606;9.096;2023-11-25T01:53:37;2.40;38.40
480;DHT22;226;48.606;9.096;2023-11-25T01:56:06;2.40;37.40
480;DHT22;226;48.606;9.096;2023-11-25T01:58:37;2.30;37.80
480;DHT22;226;48.606;9.096;2023-11-25T02:01:06;2.30;37.10
480;DHT22;226;48.606;9.096;2023-11-25T02:03:35;2.20;36.30
480;DHT22;226;48.606;9.096;2023-11-25T02:06:03;2.20;36.20
480;DHT22;226;48.606;9.096;2023-11-25T02:08:34;2.20;33.00
480;DHT22;226;48.606;9.096;2023-11-25T02:13:36;2.20;36.40
480;DHT22;226;48.606;9.096;2023-11-25T02:16:05;2.20;36.00
480;DHT22;226;48.606;9.096;2023-11-25T02:18:35;2.20;33.00
480;DHT22;226;48.606;9.096;2023-11-25T02:21:04;2.20;32.90
480;DHT22;226;48.606;9.096;2023-11-25T02:23:34;2.20;33.90
480;DHT22;226;48.606;9.096;2023-11-25T02:26:02;2.20;33.10
480;DHT22;226;48.606;9.096;2023-11-25T02:28:31;2.30;33.10
480;DHT22;226;48.606;9.096;2023-11-25T02:31:00;2.30;36.00
480;DHT22;226;48.606;9.096;2023-11-25T02:33:32;2.30;35.80
480;DHT22;226;48.606;9.096;2023-11-25T02:36:04;2.30;37.70
480;DHT22;226;48.606;9.096;2023-11-25T02:38:36;2.30;38.70
480;DHT22;226;48.606;9.096;2023-11-25T02:41:04;2.50;38.60
480;DHT22;226;48.606;9.096;2023-11-25T02:43:32;2.30;37.10
480;DHT22;226;48.606;9.096;2023-11-25T02:46:01;2.30;36.60
480;DHT22;226;48.606;9.096;2023-11-25T02:48:30;2.30;35.60
480;DHT22;226;48.606;9.096;2023-11-25T02:50:59;2.30;34.80
480;DHT22;226;48.606;9.096;2023-11-25T02:53:27;2.20;33.50
480;DHT22;226;48.606;9.096;2023-11-25T02:55:58;2.20;33.80
480;DHT22;226;48.606;9.096;2023-11-25T02:58:26;2.30;33.10
480;DHT22;226;48.606;9.096;2023-11-25T03:00:55;2.30;32.00
480;DHT22;226;48.606;9.096;2023-11-25T03:03:28;2.20;31.90
480;DHT22;226;48.606;9.096;2023-11-25T03:05:56;2.30;34.50
480;DHT22;226;48.606;9.096;2023-11-25T03:08:27;2.20;33.70
480;DHT22;226;48.606;9.096;2023-11-25T03:10:55;2.20;33.30
480;DHT22;226;48.606;9.096;2023-11-25T03:13:25;2.10;30.60
480;DHT22;226;48.606;9.096;2023-11-25T03:15:53;2.20;34.30
480;DHT22;226;48.606;9.096;2023-11-25T03:18:21;2.10;32.90
480;DHT22;226;48.606;9.096;2023-11-25T03:20:50;2.10;33.60
480;DHT22;226;48.606;9.096;2023-11-25T03:23:18;2.00;33.80
480;DHT22;226;48.606;9.096;2023-11-25T03:25:46;2.20;36.00
480;DHT22;226;48.606;9.096;2023-11-25T03:28:14;2.30;35.00
480;DHT22;226;48.606;9.096;2023-11-25T03:30:44;2.30;35.80
480;DHT22;226;48.606;9.096;2023-11-25T03:33:13;2.30;33.50
480;DHT22;226;48.606;9.096;2023-11-25T03:35:41;2.30;34.90
480;DHT22;226;48.606;9.096;2023-11-25T03:38:09;2.40;36.10
480;DHT22;226;48.606;9.096;2023-11-25T03:40:37;2.40;33.30
480;DHT22;226;48.606;9.096;2023-11-25T03:43:05;2.30;35.30
480;DHT22;226;48.606;9.096;2023-11-25T03:45:33;2.30;35.80
480;DHT22;226;48.606;9.096;2023-11-25T03:48:03;2.40;37.80
480;DHT22;226;48.606;9.096;2023-11-25T03:50:32;2.40;33.10
480;DHT22;226;48.606;9.096;2023-11-25T03:53:01;1.60;32.00
480;DHT22;226;48.606;9.096;2023-11-25T03:55:29;2.30;36.60
480;DHT22;226;48.606;9.096;2023-11-25T03:57:57;2.30;36.30
480;DHT22;226;48.606;9.096;2023-11-25T04:00:26;2.30;33.10
480;DHT22;226;48.606;9.096;2023-11-25T04:02:54;2.30;35.80
480;DHT22;226;48.606;9.096;2023-11-25T04:05:24;2.30;36.40
480;DHT22;226;48.606;9.096;2023-11-25T04:07:52;2.30;37.00
480;DHT22;226;48.606;9.096;2023-11-25T04:10:20;2.30;36.90
480;DHT22;226;48.606;9.096;2023-11-25T04:12:49;2.30;34.50
480;DHT22;226;48.606;9.096;2023-11-25T04:15:19;2.50;35.10
480;DHT22;226;48.606;9.096;2023-11-25T04:17:47;2.20;33.90
480;DHT22;226;48.606;9.096;2023-11-25T04:20:17;2.10;34.30
480;DHT22;226;48.606;9.096;2023-11-25T04:22:53;2.10;33.20
480;DHT22;226;48.606;9.096;2023-11-25T04:25:20;2.00;34.90
480;DHT22;226;48.606;9.096;2023-11-25T04:27:49;2.00;34.30
480;DHT22;226;48.606;9.096;2023-11-25T04:30:18;2.00;33.30
480;DHT22;226;48.606;9.096;2023-11-25T04:32:47;2.00;32.80
480;DHT22;226;48.606;9.096;2023-11-25T04:35:16;1.90;33.20
480;DHT22;226;48.606;9.096;2023-11-25T04:37:45;1.90;34.90
480;DHT22;226;48.606;9.096;2023-11-25T04:40:15;1.90;34.10
480;DHT22;226;48.606;9.096;2023-11-25T04:42:45;1.90;34.50
480;DHT22;226;48.606;9.096;2023-11-25T04:45:13;1.80;34.10
480;DHT22;226;48.606;9.096;2023-11-25T04:47:44;1.80;33.80
480;DHT22;226;48.606;9.096;2023-11-25T04:50:13;1.70;34.80
480;DHT22;226;48.606;9.096;2023-11-25T04:52:41;1.70;35.80
480;DHT22;226;48.606;9.096;2023-11-25T04:55:10;1.70;35.80
480;DHT22;226;48.606;9.096;2023-11-25T04:57:41;1.70;35.50
480;DHT22;226;48.606;9.096;2023-11-25T05:00:10;1.70;36.10
480;DHT22;226;48.606;9.096;2023-11-25T05:02:41;1.70;36.80
480;DHT22;226;48.606;9.096;2023-11-25T05:05:10;1.60;37.80
480;DHT22;226;48.606;9.096;2023-11-25T05:07:39;1.60;37.70
480;DHT22;226;48.606;9.096;2023-11-25T05:10:08;1.60;39.50
480;DHT22;226;48.606;9.096;2023-11-25T05:12:39;1.60;40.00
480;DHT22;226;48.606;9.096;2023-11-25T05:15:10;1.60;40.90
480;DHT22;226;48.606;9.096;2023-11-25T05:17:38;1.60;39.10
480;DHT22;226;48.606;9.096;2023-11-25T05:20:08;1.60;39.80
480;DHT22;226;48.606;9.096;2023-11-25T05:22:44;1.60;41.10
480;DHT22;226;48.606;9.096;2023-11-25T05:25:12;1.60;42.70
480;DHT22;226;48.606;9.096;2023-11-25T05:27:43;1.50;43.10
480;DHT22;226;48.606;9.096;2023-11-25T05:30:12;1.60;43.50
480;DHT22;226;48.606;9.096;2023-11-25T05:32:41;1.60;42.70
480;DHT22;226;48.606;9.096;2023-11-25T05:35:11;1.60;42.70
480;DHT22;226;48.606;9.096;2023-11-25T05:37:41;1.70;42.80
480;DHT22;226;48.606;9.096;2023-11-25T05:40:12;1.70;44.30
480;DHT22;226;48.606;9.096;2023-11-25T05:42:45;1.80;45.30
480;DHT22;226;48.606;9.096;2023-11-25T05:45:20;1.80;45.80
480;DHT22;226;48.606;9.096;2023-11-25T05:47:53;1.80;45.80
480;DHT22;226;48.606;9.096;2023-11-25T05:50:21;2.00;44.80
480;DHT22;226;48.606;9.096;2023-11-25T05:52:49;2.00;43.00
480;DHT22;226;48.606;9.096;2023-11-25T05:55:18;1.90;42.90
480;DHT22;226;48.606;9.096;2023-11-25T05:57:49;1.90;42.90
480;DHT22;226;48.606;9.096;2023-11-25T06:00:19;1.90;42.50
480;DHT22;226;48.606;9.096;2023-11-25T06:02:50;1.70;42.90
480;DHT22;226;48.606;9.096;2023-11-25T06:05:18;1.70;41.20
480;DHT22;226;48.606;9.096;2023-11-25T06:07:46;1.60;42.70
480;DHT22;226;48.606;9.096;2023-11-25T06:10:15;1.50;43.60
480;DHT22;226;48.606;9.096;2023-11-25T06:12:45;1.50;44.80
480;DHT22;226;48.606;9.096;2023-11-25T06:15:16;1.50;46.80
480;DHT22;226;48.606;9.096;2023-11-25T06:17:45;1.50;45.30
480;DHT22;226;48.606;9.096;2023-11-25T06:20:14;1.50;45.70
480;DHT22;226;48.606;9.096;2023-11-25T06:22:43;1.40;46.50
480;DHT22;226;48.606;9.096;2023-11-25T06:25:11;1.30;47.60
480;DHT22;226;48.606;9.096;2023-11-25T06:27:40;1.30;50.20
480;DHT22;226;48.606;9.096;2023-11-25T06:30:15;1.50;51.60
480;DHT22;226;48.606;9.096;2023-11-25T06:32:44;1.50;49.30
480;DHT22;226;48.606;9.096;2023-11-25T06:35:12;1.50;47.00
480;DHT22;226;48.606;9.096;2023-11-25T06:37:40;1.50;47.40
480;DHT22;226;48.606;9.096;2023-11-25T06:40:08;1.40;47.50
480;DHT22;226;48.606;9.096;2023-11-25T06:42:40;1.40;48.30
480;DHT22;226;48.606;9.096;2023-11-25T06:45:09;1.40;49.70
480;DHT22;226;48.606;9.096;2023-11-25T06:47:39;1.50;50.40
480;DHT22;226;48.606;9.096;2023-11-25T06:50:09;1.60;50.50
480;DHT22;226;48.606;9.096;2023-11-25T06:52:37;1.70;49.00
480;DHT22;226;48.606;9.096;2023-11-25T06:55:06;1.70;46.80
480;DHT22;226;48.606;9.096;2023-11-25T06:57:34;1.80;45.60
480;DHT22;226;48.606;9.096;2023-11-25T07:00:03;1.80;44.30
480;DHT22;226;48.606;9.096;2023-11-25T07:02:32;1.80;40.10
480;DHT22;226;48.606;9.096;2023-11-25T07:05:02;1.70;42.70
480;DHT22;226;48.606;9.096;2023-11-25T07:07:31;1.70;42.60
480;DHT22;226;48.606;9.096;2023-11-25T07:09:59;1.80;44.70
480;DHT22;226;48.606;9.096;2023-11-25T07:12:27;1.80;40.60
480;DHT22;226;48.606;9.096;2023-11-25T07:14:57;1.70;39.80
480;DHT22;226;48.606;9.096;2023-11-25T07:17:25;1.70;41.90
480;DHT22;226;48.606;9.096;2023-11-25T07:19:53;1.80;44.10
480;DHT22;226;48.606;9.096;2023-11-25T07:22:23;1.80;44.00
480;DHT22;226;48.606;9.096;2023-11-25T07:24:51;1.90;44.10
480;DHT22;226;48.606;9.096;2023-11-25T07:27:19;2.00;43.40
480;DHT22;226;48.606;9.096;2023-11-25T07:29:50;2.20;43.80
480;DHT22;226;48.606;9.096;2023-11-25T07:32:18;2.10;43.60
480;DHT22;226;48.606;9.096;2023-11-25T07:34:49;2.30;43.30
480;DHT22;226;48.606;9.096;2023-11-25T07:37:17;2.20;40.10
480;DHT22;226;48.606;9.096;2023-11-25T07:39:47;2.30;40.00
480;DHT22;226;48.606;9.096;2023-11-25T07:42:15;2.40;40.20
480;DHT22;226;48.606;9.096;2023-11-25T07:44:43;2.50;35.60
480;DHT22;226;48.606;9.096;2023-11-25T07:47:12;2.40;32.90
480;DHT22;226;48.606;9.096;2023-11-25T07:49:43;2.40;31.90
480;DHT22;226;48.606;9.096;2023-11-25T07:52:11;2.40;32.50
480;DHT22;226;48.606;9.096;2023-11-25T07:54:39;2.30;30.90
480;DHT22;226;48.606;9.096;2023-11-25T07:57:08;2.30;33.10
480;DHT22;226;48.606;9.096;2023-11-25T07:59:36;2.30;32.50
480;DHT22;226;48.606;9.096;2023-11-25T08:02:05;2.30;31.60
480;DHT22;226;48.606;9.096;2023-11-25T08:04:35;2.30;29.30
480;DHT22;226;48.606;9.096;2023-11-25T08:07:03;2.30;29.80
480;DHT22;226;48.606;9.096;2023-11-25T08:09:32;2.30;30.00
480;DHT22;226;48.606;9.096;2023-11-25T08:12:01;2.30;30.60
480;DHT22;226;48.606;9.096;2023-11-25T08:14:32;2.30;30.90
480;DHT22;226;48.606;9.096;2023-11-25T08:17:00;2.40;29.50
480;DHT22;226;48.606;9.096;2023-11-25T08:19:28;2.40;30.00
480;DHT22;226;48.606;9.096;2023-11-25T08:21:56;2.30;30.00
480;DHT22;226;48.606;9.096;2023-11-25T08:24:25;2.30;29.50
480;DHT22;226;48.606;9.096;2023-11-25T08:26:53;2.30;32.10
480;DHT22;226;48.606;9.096;2023-11-25T08:29:21;2.40;29.50
480;DHT22;226;48.606;9.096;2023-11-25T08:31:50;2.30;29.70
480;DHT22;226;48.606;9.096;2023-11-25T08:34:19;2.30;30.00
480;DHT22;226;48.606;9.096;2023-11-25T08:36:48;2.30;30.30
480;DHT22;226;48.606;9.096;2023-11-25T08:39:20;2.20;31.30
480;DHT22;226;48.606;9.096;2023-11-25T08:41:53;2.20;33.10
480;DHT22;226;48.606;9.096;2023-11-25T08:44:22;2.30;33.50
480;DHT22;226;48.606;9.096;2023-11-25T08:46:51;2.30;31.50
480;DHT22;226;48.606;9.096;2023-11-25T08:49:20;2.40;31.80
480;DHT22;226;48.606;9.096;2023-11-25T08:51:51;2.40;33.50
480;DHT22;226;48.606;9.096;2023-11-25T08:54:19;2.90;31.90
480;DHT22;226;48.606;9.096;2023-11-25T08:56:47;2.60;32.00
480;DHT22;226;48.606;9.096;2023-11-25T08:59:18;2.70;30.20
480;DHT22;226;48.606;9.096;2023-11-25T09:01:48;2.70;31.60
480;DHT22;226;48.606;9.096;2023-11-25T09:04:20;2.80;30.70
480;DHT22;226;48.606;9.096;2023-11-25T09:06:49;3.00;32.70
480;DHT22;226;48.606;9.096;2023-11-25T09:09:19;2.90;29.80
480;DHT22;226;48.606;9.096;2023-11-25T09:11:47;3.00;31.70
480;DHT22;226;48.606;9.096;2023-11-25T09:14:16;3.00;29.80
480;DHT22;226;48.606;9.096;2023-11-25T09:16:46;3.00;29.80
480;DHT22;226;48.606;9.096;2023-11-25T09:19:14;3.10;30.50
480;DHT22;226;48.606;9.096;2023-11-25T09:21:43;3.00;32.20
480;DHT22;226;48.606;9.096;2023-11-25T09:24:12;3.10;32.20
480;DHT22;226;48.606;9.096;2023-11-25T09:26:40;3.20;30.00
480;DHT22;226;48.606;9.096;2023-11-25T09:29:09;3.40;30.30
480;DHT22;226;48.606;9.096;2023-11-25T09:31:37;3.50;29.00
480;DHT22;226;48.606;9.096;2023-11-25T09:34:05;3.30;29.50
480;DHT22;226;48.606;9.096;2023-11-25T09:36:35;3.60;30.00
480;DHT22;226;48.606;9.096;2023-11-25T09:39:05;3.60;29.30
480;DHT22;226;48.606;9.096;2023-11-25T09:41:37;3.50;28.20
480;DHT22;226;48.606;9.096;2023-11-25T09:44:06;3.50;29.20
480;DHT22;226;48.606;9.096;2023-11-25T09:46:35;3.40;29.50
480;DHT22;226;48.606;9.096;2023-11-25T09:49:04;3.30;29.40
480;DHT22;226;48.606;9.096;2023-11-25T09:51:32;3.30;29.70
480;DHT22;226;48.606;9.096;2023-11-25T09:54:05;3.20;29.60
480;DHT22;226;48.606;9.096;2023-11-25T09:56:35;3.30;31.00
480;DHT22;226;48.606;9.096;2023-11-25T09:59:04;3.40;31.30
480;DHT22;226;48.606;9.096;2023-11-25T10:01:33;3.30;33.20
480;DHT22;226;48.606;9.096;2023-11-25T10:04:02;3.40;31.10
480;DHT22;226;48.606;9.096;2023-11-25T10:06:33;3.50;30.00
480;DHT22;226;48.606;9.096;2023-11-25T10:09:02;3.40;30.00
480;DHT22;226;48.606;9.096;2023-11-25T10:11:33;3.20;31.20
480;DHT22;226;48.606;9.096;2023-11-25T10:14:02;3.60;30.40
480;DHT22;226;48.606;9.096;2023-11-25T10:16:36;3.50;30.10
480;DHT22;226;48.606;9.096;2023-11-25T10:19:16;3.60;31.20
480;DHT22;226;48.606;9.096;2023-11-25T10:21:45;3.60;28.70
480;DHT22;226;48.606;9.096;2023-11-25T10:24:14;3.40;28.70
480;DHT22;226;48.606;9.096;2023-11-25T10:26:45;3.30;29.00
480;DHT22;226;48.606;9.096;2023-11-25T10:29:13;3.20;29.20
480;DHT22;226;48.606;9.096;2023-11-25T10:31:42;3.30;31.20
480;DHT22;226;48.606;9.096;2023-11-25T10:34:10;3.30;30.40
480;DHT22;226;48.606;9.096;2023-11-25T10:36:40;3.30;31.10
480;DHT22;226;48.606;9.096;2023-11-25T10:39:08;3.30;30.80
480;DHT22;226;48.606;9.096;2023-11-25T10:41:36;3.30;31.80
480;DHT22;226;48.606;9.096;2023-11-25T10:44:07;3.40;31.80
480;DHT22;226;48.606;9.096;2023-11-25T10:46:40;3.40;29.50
480;DHT22;226;48.606;9.096;2023-11-25T10:49:09;3.50;31.50
480;DHT22;226;48.606;9.096;2023-11-25T10:51:39;3.40;30.40
480;DHT22;226;48.606;9.096;2023-11-25T10:54:07;3.50;30.10
480;DHT22;226;48.606;9.096;2023-11-25T10:56:36;3.50;34.20
480;DHT22;226;48.606;9.096;2023-11-25T10:59:07;3.60;31.60
480;DHT22;226;48.606;9.096;2023-11-25T11:01:42;3.70;31.10
480;DHT22;226;48.606;9.096;2023-11-25T11:04:17;3.70;29.70
480;DHT22;226;48.606;9.096;2023-11-25T11:06:48;3.90;29.90
480;DHT22;226;48.606;9.096;2023-11-25T11:09:24;3.90;27.30
480;DHT22;226;48.606;9.096;2023-11-25T11:11:57;4.00;28.60
480;DHT22;226;48.606;9.096;2023-11-25T11:14:30;4.20;28.30
480;DHT22;226;48.606;9.096;2023-11-25T11:17:06;4.30;25.10
480;DHT22;226;48.606;9.096;2023-11-25T11:19:40;4.10;25.50
480;DHT22;226;48.606;9.096;2023-11-25T11:22:10;4.10;25.50
480;DHT22;226;48.606;9.096;2023-11-25T11:24:54;4.10;25.50
480;DHT22;226;48.606;9.096;2023-11-25T11:27:30;4.20;24.50
480;DHT22;226;48.606;9.096;2023-11-25T11:30:07;4.20;24.90
480;DHT22;226;48.606;9.096;2023-11-25T11:32:38;4.30;23.90
480;DHT22;226;48.606;9.096;2023-11-25T11:35:11;4.40;23.30
480;DHT22;226;48.606;9.096;2023-11-25T11:37:49;4.50;23.30
480;DHT22;226;48.606;9.096;2023-11-25T11:40:20;4.60;21.40
480;DHT22;226;48.606;9.096;2023-11-25T11:42:49;4.30;21.90
480;DHT22;226;48.606;9.096;2023-11-25T11:45:19;4.50;21.60
480;DHT22;226;48.606;9.096;2023-11-25T11:47:51;4.50;21.60
480;DHT22;226;48.606;9.096;2023-11-25T11:50:22;4.50;21.40
480;DHT22;226;48.606;9.096;2023-11-25T11:53:11;4.50;21.60
480;DHT22;226;48.606;9.096;2023-11-25T11:55:42;4.50;21.60
480;DHT22;226;48.606;9.096;2023-11-25T11:58:12;4.40;21.50
480;DHT22;226;48.606;9.096;2023-11-25T12:00:45;4.30;22.40
480;DHT22;226;48.606;9.096;2023-11-25T12:03:15;4.20;23.30
480;DHT22;226;48.606;9.096;2023-11-25T12:05:43;4.00;24.60
480;DHT22;226;48.606;9.096;2023-11-25T12:08:12;3.90;24.30
480;DHT22;226;48.606;9.096;2023-11-25T12:10:40;3.80;24.20
480;DHT22;226;48.606;9.096;2023-11-25T12:13:09;3.70;25.30
480;DHT22;226;48.606;9.096;2023-11-25T12:15:39;3.60;26.30
480;DHT22;226;48.606;9.096;2023-11-25T12:18:10;3.50;29.20
480;DHT22;226;48.606;9.096;2023-11-25T12:20:41;3.50;30.00
480;DHT22;226;48.606;9.096;2023-11-25T12:23:10;3.60;32.00
480;DHT22;226;48.606;9.096;2023-11-25T12:25:39;3.60;31.20
480;DHT22;226;48.606;9.096;2023-11-25T12:28:08;3.60;31.30
480;DHT22;226;48.606;9.096;2023-11-25T12:30:37;3.60;32.60
480;DHT22;226;48.606;9.096;2023-11-25T12:33:09;3.60;35.30
480;DHT22;226;48.606;9.096;2023-11-25T12:35:40;3.70;34.30
480;DHT22;226;48.606;9.096;2023-11-25T12:38:11;3.80;34.40
480;DHT22;226;48.606;9.096;2023-11-25T12:40:42;4.00;33.10
480;DHT22;226;48.606;9.096;2023-11-25T12:43:12;3.80;33.00
480;DHT22;226;48.606;9.096;2023-11-25T12:45:42;3.70;34.80
480;DHT22;226;48.606;9.096;2023-11-25T12:48:13;3.70;39.40
480;DHT22;226;48.606;9.096;2023-11-25T12:51:00;3.80;39.60
480;DHT22;226;48.606;9.096;2023-11-25T12:53:30;3.80;36.60
480;DHT22;226;48.606;9.096;2023-11-25T12:55:58;3.60;38.10
480;DHT22;226;48.606;9.096;2023-11-25T12:58:27;3.60;37.90
480;DHT22;226;48.606;9.096;2023-11-25T13:00:56;3.50;37.80
480;DHT22;226;48.606;9.096;2023-11-25T13:03:27;2.80;37.00
480;DHT22;226;48.606;9.096;2023-11-25T13:05:58;3.50;36.70
480;DHT22;226;48.606;9.096;2023-11-25T13:08:28;3.60;36.10
480;DHT22;226;48.606;9.096;2023-11-25T13:10:59;3.60;36.90
480;DHT22;226;48.606;9.096;2023-11-25T13:13:27;3.70;36.40
480;DHT22;226;48.606;9.096;2023-11-25T13:15:57;3.70;34.20
480;DHT22;226;48.606;9.096;2023-11-25T13:18:27;3.70;35.10
480;DHT22;226;48.606;9.096;2023-11-25T13:20:55;3.70;33.90
480;DHT22;226;48.606;9.096;2023-11-25T13:23:24;3.70;33.20
480;DHT22;226;48.606;9.096;2023-11-25T13:25:52;3.80;33.80
480;DHT22;226;48.606;9.096;2023-11-25T13:28:20;3.80;32.40
480;DHT22;226;48.606;9.096;2023-11-25T13:30:49;3.80;32.50
480;DHT22;226;48.606;9.096;2023-11-25T13:33:18;3.70;32.40
480;DHT22;226;48.606;9.096;2023-11-25T13:35:47;3.50;36.10
480;DHT22;226;48.606;9.096;2023-11-25T13:38:15;3.50;36.50
480;DHT22;226;48.606;9.096;2023-11-25T13:40:44;3.50;37.60
480;DHT22;226;48.606;9.096;2023-11-25T13:43:12;3.40;39.10
480;DHT22;226;48.606;9.096;2023-11-25T13:45:41;3.40;39.40
480;DHT22;226;48.606;9.096;2023-11-25T13:48:09;3.40;42.40
480;DHT22;226;48.606;9.096;2023-11-25T13:50:41;3.50;43.10
480;DHT22;226;48.606;9.096;2023-11-25T13:53:11;3.50;44.30
480;DHT22;226;48.606;9.096;2023-11-25T13:55:40;3.60;45.10
480;DHT22;226;48.606;9.096;2023-11-25T13:58:13;3.60;44.40
480;DHT22;226;48.606;9.096;2023-11-25T14:00:42;3.50;44.40
480;DHT22;226;48.606;9.096;2023-11-25T14:03:11;3.30;47.00
480;DHT22;226;48.606;9.096;2023-11-25T14:05:42;3.30;48.60
480;DHT22;226;48.606;9.096;2023-11-25T14:08:12;3.40;51.30
480;DHT22;226;48.606;9.096;2023-11-25T14:10:43;3.40;49.30
480;DHT22;226;48.606;9.096;2023-11-25T14:13:11;3.30;49.10
480;DHT22;226;48.606;9.096;2023-11-25T14:15:41;3.30;51.60
480;DHT22;226;48.606;9.096;2023-11-25T14:18:09;3.30;52.00
480;DHT22;226;48.606;9.096;2023-11-25T14:20:38;3.40;50.60
480;DHT22;226;48.606;9.096;2023-11-25T14:23:06;3.30;52.40
480;DHT22;226;48.606;9.096;2023-11-25T14:25:36;3.20;52.60
480;DHT22;226;48.606;9.096;2023-11-25T14:28:05;3.30;54.00
480;DHT22;226;48.606;9.096;2023-11-25T14:30:34;3.30;54.00
480;DHT22;226;48.606;9.096;2023-11-25T14:33:03;3.30;54.60
480;DHT22;226;48.606;9.096;2023-11-25T14:35:32;3.10;55.30
480;DHT22;226;48.606;9.096;2023-11-25T14:38:01;3.20;58.30
480;DHT22;226;48.606;9.096;2023-11-25T14:40:31;3.40;57.90
480;DHT22;226;48.606;9.096;2023-11-25T14:43:07;3.20;57.00
480;DHT22;226;48.606;9.096;2023-11-25T14:45:36;3.20;58.10
480;DHT22;226;48.606;9.096;2023-11-25T14:48:06;3.30;58.10
480;DHT22;226;48.606;9.096;2023-11-25T14:50:37;3.10;58.70
480;DHT22;226;48.606;9.096;2023-11-25T14:53:08;3.10;60.10
480;DHT22;226;48.606;9.096;2023-11-25T14:55:39;3.20;61.70
480;DHT22;226;48.606;9.096;2023-11-25T14:58:11;3.50;59.30
480;DHT22;226;48.606;9.096;2023-11-25T15:00:39;3.10;60.30
480;DHT22;226;48.606;9.096;2023-11-25T15:03:08;3.20;61.50
480;DHT22;226;48.606;9.096;2023-11-25T15:05:36;3.20;61.30
480;DHT22;226;48.606;9.096;2023-11-25T15:08:05;3.30;62.80
480;DHT22;226;48.606;9.096;2023-11-25T15:10:33;3.30;62.20
480;DHT22;226;48.606;9.096;2023-11-25T15:13:01;3.30;60.90
480;DHT22;226;48.606;9.096;2023-11-25T15:15:31;3.30;59.10
480;DHT22;226;48.606;9.096;2023-11-25T15:17:59;3.20;59.10
480;DHT22;226;48.606;9.096;2023-11-25T15:20:28;3.20;61.40
480;DHT22;226;48.606;9.096;2023-11-25T15:22:57;3.20;63.20
480;DHT22;226;48.606;9.096;2023-11-25T15:25:27;3.30;64.80
480;DHT22;226;48.606;9.096;2023-11-25T15:27:55;3.40;62.30
480;DHT22;226;48.606;9.096;2023-11-25T15:30:23;3.30;58.60
480;DHT22;226;48.606;9.096;2023-11-25T15:32:54;3.30;60.50
480;DHT22;226;48.606;9.096;2023-11-25T15:35:23;3.30;61.80
480;DHT22;226;48.606;9.096;2023-11-25T15:37:51;3.40;61.20
480;DHT22;226;48.606;9.096;2023-11-25T15:40:19;3.40;60.50
480;DHT22;226;48.606;9.096;2023-11-25T15:42:47;3.10;60.80
480;DHT22;226;48.606;9.096;2023-11-25T15:45:16;3.50;61.70
480;DHT22;226;48.606;9.096;2023-11-25T15:47:44;3.60;62.00
480;DHT22;226;48.606;9.096;2023-11-25T15:50:14;3.60;58.30
480;DHT22;226;48.606;9.096;2023-11-25T15:52:42;3.60;56.10
480;DHT22;226;48.606;9.096;2023-11-25T15:55:10;3.60;56.40
480;DHT22;226;48.606;9.096;2023-11-25T15:57:39;3.60;57.00
480;DHT22;226;48.606;9.096;2023-11-25T16:00:08;3.50;57.70
480;DHT22;226;48.606;9.096;2023-11-25T16:02:41;3.50;57.90
480;DHT22;226;48.606;9.096;2023-11-25T16:05:11;3.50;58.00
480;DHT22;226;48.606;9.096;2023-11-25T16:07:42;3.50;58.00
480;DHT22;226;48.606;9.096;2023-11-25T16:10:11;3.50;57.20
480;DHT22;226;48.606;9.096;2023-11-25T16:12:40;3.40;57.80
480;DHT22;226;48.606;9.096;2023-11-25T16:15:09;3.30;57.50
480;DHT22;226;48.606;9.096;2023-11-25T16:17:38;3.30;59.80
480;DHT22;226;48.606;9.096;2023-11-25T16:20:08;3.30;60.40
480;DHT22;226;48.606;9.096;2023-11-25T16:22:37;3.30;60.50
480;DHT22;226;48.606;9.096;2023-11-25T16:25:07;3.30;59.80
480;DHT22;226;48.606;9.096;2023-11-25T16:27:36;3.30;59.90
480;DHT22;226;48.606;9.096;2023-11-25T16:30:05;3.40;60.10
480;DHT22;226;48.606;9.096;2023-11-25T16:32:35;3.30;59.80
480;DHT22;226;48.606;9.096;2023-11-25T16:35:04;3.30;60.80
480;DHT22;226;48.606;9.096;2023-11-25T16:37:33;3.30;61.80
480;DHT22;226;48.606;9.096;2023-11-25T16:40:01;3.30;62.40
480;DHT22;226;48.606;9.096;2023-11-25T16:42:31;3.40;61.40
480;DHT22;226;48.606;9.096;2023-11-25T16:44:59;3.50;61.70
480;DHT22;226;48.606;9.096;2023-11-25T16:47:28;3.40;60.60
480;DHT22;226;48.606;9.096;2023-11-25T16:49:56;3.50;59.70
480;DHT22;226;48.606;9.096;2023-11-25T16:52:25;3.50;61.00
480;DHT22;226;48.606;9.096;2023-11-25T16:54:53;3.60;59.50
480;DHT22;226;48.606;9.096;2023-11-25T16:57:22;3.60;59.10
480;DHT22;226;48.606;9.096;2023-11-25T16:59:53;3.70;60.90
480;DHT22;226;48.606;9.096;2023-11-25T17:02:21;3.70;60.70
480;DHT22;226;48.606;9.096;2023-11-25T17:04:49;3.80;58.30
480;DHT22;226;48.606;9.096;2023-11-25T17:07:18;3.70;56.00
480;DHT22;226;48.606;9.096;2023-11-25T17:09:46;3.70;57.40